Reiles Acres, North Dakota
Current Conditions -  °F | °C
As of 7:53 PM on Monday 24 Nov 2014 (Local Time) from KFAR Reporting Station
Clear Clear  
Wind Chill: -18°   Ceiling: Unl
Heat Index: -11°   Visibility: 10mi
Dew Point: -15°   Wind: 9mph
Humidity: 73%   Direction: 320°NW
Pressure: 29.99"   Gusts: NA
Location:  46.9259°N, 96.8507°W
Report Text: KFAR 250153Z 32008KT 10SM CLR M11/M15 A2999 RMK AO2 SLP177 T11111150
Loading
Personal Weather Stations






























Interactive Weather Map New forecast layout! Learn more

10-Day Weather Forecast

Advertisements
Track Severe Weather on mobile